sensor_id;sensor_type;location;lat;lon;timestamp;noise_LAeq;noise_LA_min;noise_LA_max;noise_LA01;noise_LA95
45109;Laerm;30447;48.742;8.972;2023-07-29T00:00:48;38.51;32.35;48.61;;
45109;Laerm;30447;48.742;8.972;2023-07-29T00:03:15;38.43;34.31;41.14;;
45109;Laerm;30447;48.742;8.972;2023-07-29T00:05:41;38.40;33.44;40.98;;
45109;Laerm;30447;48.742;8.972;2023-07-29T00:08:08;38.61;34.31;45.23;;
45109;Laerm;30447;48.742;8.972;2023-07-29T00:10:37;38.61;33.44;44.07;;
45109;Laerm;30447;48.742;8.972;2023-07-29T00:13:07;38.37;33.44;41.22;;
45109;Laerm;30447;48.742;8.972;2023-07-29T00:15:34;38.77;34.31;51.24;;
45109;Laerm;30447;48.742;8.972;2023-07-29T00:18:01;38.35;33.44;41.22;;
45109;Laerm;30447;48.742;8.972;2023-07-29T00:20:27;38.22;33.90;43.94;;
45109;Laerm;30447;48.742;8.972;2023-07-29T00:22:53;38.34;33.44;46.10;;
45109;Laerm;30447;48.742;8.972;2023-07-29T00:25:21;38.30;33.90;41.75;;
45109;Laerm;30447;48.742;8.972;2023-07-29T00:27:48;38.27;32.93;40.89;;
45109;Laerm;30447;48.742;8.972;2023-07-29T00:30:14;38.24;33.90;41.30;;
45109;Laerm;30447;48.742;8.972;2023-07-29T00:32:41;38.25;33.90;42.35;;
45109;Laerm;30447;48.742;8.972;2023-07-29T00:35:07;38.20;32.93;40.98;;
45109;Laerm;30447;48.742;8.972;2023-07-29T00:37:34;38.06;32.35;40.62;;
45109;Laerm;30447;48.742;8.972;2023-07-29T00:40:00;38.46;33.44;42.03;;
45109;Laerm;30447;48.742;8.972;2023-07-29T00:42:27;39.15;34.31;44.80;;
45109;Laerm;30447;48.742;8.972;2023-07-29T00:44:53;38.70;33.44;42.03;;
45109;Laerm;30447;48.742;8.972;2023-07-29T00:47:20;39.02;33.44;43.99;;
45109;Laerm;30447;48.742;8.972;2023-07-29T00:49:49;39.29;34.69;41.96;;
45109;Laerm;30447;48.742;8.972;2023-07-29T00:52:15;39.41;33.90;44.31;;
45109;Laerm;30447;48.742;8.972;2023-07-29T00:54:42;38.73;34.69;42.47;;
45109;Laerm;30447;48.742;8.972;2023-07-29T00:57:11;39.61;34.31;51.46;;
45109;Laerm;30447;48.742;8.972;2023-07-29T00:59:41;38.41;33.90;42.88;;
45109;Laerm;30447;48.742;8.972;2023-07-29T01:02:08;38.27;33.90;40.98;;
45109;Laerm;30447;48.742;8.972;2023-07-29T01:04:34;38.32;32.93;41.75;;
45109;Laerm;30447;48.742;8.972;2023-07-29T01:07:09;38.10;33.44;40.80;;
45109;Laerm;30447;48.742;8.972;2023-07-29T01:12:42;38.02;33.44;40.80;;
45109;Laerm;30447;48.742;8.972;2023-07-29T01:15:26;38.22;33.44;41.96;;
45109;Laerm;30447;48.742;8.972;2023-07-29T01:18:18;38.04;33.90;40.98;;
45109;Laerm;30447;48.742;8.972;2023-07-29T01:20:48;38.01;32.93;52.29;;
45109;Laerm;30447;48.742;8.972;2023-07-29T01:23:26;38.48;33.90;57.69;;
45109;Laerm;30447;48.742;8.972;2023-07-29T01:25:55;38.44;33.44;41.75;;
45109;Laerm;30447;48.742;8.972;2023-07-29T01:28:22;38.42;33.90;42.76;;
45109;Laerm;30447;48.742;8.972;2023-07-29T01:30:51;38.61;34.69;41.75;;
45109;Laerm;30447;48.742;8.972;2023-07-29T01:33:26;38.23;32.93;41.53;;
45109;Laerm;30447;48.742;8.972;2023-07-29T01:36:11;38.11;32.00;41.46;;
45109;Laerm;30447;48.742;8.972;2023-07-29T01:38:42;38.46;33.44;41.46;;
45109;Laerm;30447;48.742;8.972;2023-07-29T01:41:10;38.39;33.90;41.82;;
45109;Laerm;30447;48.742;8.972;2023-07-29T01:43:37;38.26;32.93;41.22;;
45109;Laerm;30447;48.742;8.972;2023-07-29T01:46:11;38.03;32.93;40.89;;
45109;Laerm;30447;48.742;8.972;2023-07-29T01:48:41;38.03;31.68;40.98;;
45109;Laerm;30447;48.742;8.972;2023-07-29T01:51:10;38.09;33.90;41.06;;
45109;Laerm;30447;48.742;8.972;2023-07-29T01:53:37;38.11;33.44;41.06;;
45109;Laerm;30447;48.742;8.972;2023-07-29T01:56:03;38.00;32.35;40.98;;
45109;Laerm;30447;48.742;8.972;2023-07-29T01:58:30;37.86;32.35;40.33;;
45109;Laerm;30447;48.742;8.972;2023-07-29T02:00:56;38.04;32.93;40.98;;
45109;Laerm;30447;48.742;8.972;2023-07-29T02:03:23;37.92;32.93;42.82;;
45109;Laerm;30447;48.742;8.972;2023-07-29T02:05:49;37.99;34.31;40.80;;
45109;Laerm;30447;48.742;8.972;2023-07-29T02:08:15;38.57;33.44;63.46;;
45109;Laerm;30447;48.742;8.972;2023-07-29T02:10:42;37.93;32.93;40.33;;
45109;Laerm;30447;48.742;8.972;2023-07-29T02:13:11;38.19;34.31;42.03;;
45109;Laerm;30447;48.742;8.972;2023-07-29T02:15:38;38.38;34.31;41.06;;
45109;Laerm;30447;48.742;8.972;2023-07-29T02:18:04;38.17;33.44;40.80;;
45109;Laerm;30447;48.742;8.972;2023-07-29T02:20:32;38.18;33.44;41.82;;
45109;Laerm;30447;48.742;8.972;2023-07-29T02:22:59;38.21;33.90;40.98;;
45109;Laerm;30447;48.742;8.972;2023-07-29T02:25:25;38.08;33.90;40.98;;
45109;Laerm;30447;48.742;8.972;2023-07-29T02:27:52;38.11;33.90;42.09;;
45109;Laerm;30447;48.742;8.972;2023-07-29T02:30:18;38.61;33.44;42.88;;
45109;Laerm;30447;48.742;8.972;2023-07-29T02:32:45;38.51;33.90;41.46;;
45109;Laerm;30447;48.742;8.972;2023-07-29T02:35:12;38.52;33.44;41.14;;
45109;Laerm;30447;48.742;8.972;2023-07-29T02:37:38;38.30;33.44;41.46;;
45109;Laerm;30447;48.742;8.972;2023-07-29T02:40:05;38.37;32.93;42.16;;
45109;Laerm;30447;48.742;8.972;2023-07-29T02:42:32;38.21;32.93;44.69;;
45109;Laerm;30447;48.742;8.972;2023-07-29T02:44:58;37.91;32.93;43.49;;
45109;Laerm;30447;48.742;8.972;2023-07-29T02:47:25;37.95;32.93;41.22;;
45109;Laerm;30447;48.742;8.972;2023-07-29T02:49:51;38.06;33.90;40.88;;
45109;Laerm;30447;48.742;8.972;2023-07-29T02:52:18;38.06;33.90;41.46;;
45109;Laerm;30447;48.742;8.972;2023-07-29T02:54:44;38.48;33.44;41.82;;
45109;Laerm;30447;48.742;8.972;2023-07-29T02:57:13;38.99;33.44;44.23;;
45109;Laerm;30447;48.742;8.972;2023-07-29T02:59:39;38.89;33.90;43.49;;
45109;Laerm;30447;48.742;8.972;2023-07-29T03:02:06;38.23;32.93;41.96;;
45109;Laerm;30447;48.742;8.972;2023-07-29T03:04:32;37.88;33.44;40.71;;
45109;Laerm;30447;48.742;8.972;2023-07-29T03:06:59;37.92;33.90;40.80;;
45109;Laerm;30447;48.742;8.972;2023-07-29T03:09:26;38.03;33.90;41.82;;
45109;Laerm;30447;48.742;8.972;2023-07-29T03:11:52;39.55;34.69;43.63;;
45109;Laerm;30447;48.742;8.972;2023-07-29T03:14:21;38.44;34.31;42.22;;
45109;Laerm;30447;48.742;8.972;2023-07-29T03:16:47;38.39;34.31;41.75;;
45109;Laerm;30447;48.742;8.972;2023-07-29T03:19:14;38.14;32.93;42.16;;
45109;Laerm;30447;48.742;8.972;2023-07-29T03:21:41;38.41;33.44;44.31;;
45109;Laerm;30447;48.742;8.972;2023-07-29T03:24:07;38.07;32.93;49.85;;
45109;Laerm;30447;48.742;8.972;2023-07-29T03:26:34;38.02;33.90;42.47;;
45109;Laerm;30447;48.742;8.972;2023-07-29T03:29:00;38.52;33.90;41.89;;
45109;Laerm;30447;48.742;8.972;2023-07-29T03:31:26;38.54;34.31;41.61;;
45109;Laerm;30447;48.742;8.972;2023-07-29T03:33:54;39.95;35.36;44.34;;
45109;Laerm;30447;48.742;8.972;2023-07-29T03:36:21;38.51;35.04;41.38;;
45109;Laerm;30447;48.742;8.972;2023-07-29T03:38:47;38.65;34.69;41.75;;
45109;Laerm;30447;48.742;8.972;2023-07-29T03:41:14;38.59;32.93;41.68;;
45109;Laerm;30447;48.742;8.972;2023-07-29T03:43:40;38.38;34.31;41.38;;
45109;Laerm;30447;48.742;8.972;2023-07-29T03:46:07;39.16;34.31;41.96;;
45109;Laerm;30447;48.742;8.972;2023-07-29T03:48:33;48.99;36.69;53.53;;
45109;Laerm;30447;48.742;8.972;2023-07-29T03:51:00;43.14;37.88;63.12;;
45109;Laerm;30447;48.742;8.972;2023-07-29T03:53:26;46.53;39.92;53.60;;
45109;Laerm;30447;48.742;8.972;2023-07-29T03:55:53;40.47;37.88;45.72;;
45109;Laerm;30447;48.742;8.972;2023-07-29T03:58:19;41.20;38.67;48.83;;
45109;Laerm;30447;48.742;8.972;2023-07-29T04:00:45;42.00;37.70;47.52;;
45109;Laerm;30447;48.742;8.972;2023-07-29T04:03:12;39.63;36.20;43.90;;
45109;Laerm;30447;48.742;8.972;2023-07-29T04:05:38;43.07;36.34;58.28;;
45109;Laerm;30447;48.742;8.972;2023-07-29T04:08:05;39.88;35.66;54.47;;
45109;Laerm;30447;48.742;8.972;2023-07-29T04:10:31;39.29;34.69;52.38;;
45109;Laerm;30447;48.742;8.972;2023-07-29T04:12:58;38.81;34.69;52.44;;
45109;Laerm;30447;48.742;8.972;2023-07-29T04:15:24;43.04;35.36;56.33;;
45109;Laerm;30447;48.742;8.972;2023-07-29T04:17:51;40.83;36.91;50.74;;
45109;Laerm;30447;48.742;8.972;2023-07-29T04:20:17;40.20;36.20;44.65;;
45109;Laerm;30447;48.742;8.972;2023-07-29T04:22:44;45.86;38.95;50.34;;
45109;Laerm;30447;48.742;8.972;2023-07-29T04:25:10;48.84;45.23;52.81;;
45109;Laerm;30447;48.742;8.972;2023-07-29T04:27:36;48.09;45.77;52.59;;
45109;Laerm;30447;48.742;8.972;2023-07-29T04:30:03;48.84;44.35;52.88;;
45109;Laerm;30447;48.742;8.972;2023-07-29T04:32:30;47.94;42.71;54.80;;
45109;Laerm;30447;48.742;8.972;2023-07-29T04:34:56;46.93;42.76;51.60;;
45109;Laerm;30447;48.742;8.972;2023-07-29T04:37:24;51.13;44.76;64.46;;
45109;Laerm;30447;48.742;8.972;2023-07-29T04:39:50;44.68;41.96;52.73;;
45109;Laerm;30447;48.742;8.972;2023-07-29T04:42:16;43.77;40.33;53.58;;
45109;Laerm;30447;48.742;8.972;2023-07-29T04:44:43;44.76;40.80;48.07;;
45109;Laerm;30447;48.742;8.972;2023-07-29T04:47:09;43.57;40.98;51.71;;
45109;Laerm;30447;48.742;8.972;2023-07-29T04:49:36;43.80;39.81;51.27;;
45109;Laerm;30447;48.742;8.972;2023-07-29T04:52:02;42.52;38.95;51.95;;
45109;Laerm;30447;48.742;8.972;2023-07-29T04:54:29;43.89;38.21;49.14;;
45109;Laerm;30447;48.742;8.972;2023-07-29T04:56:55;44.62;39.70;48.18;;
45109;Laerm;30447;48.742;8.972;2023-07-29T04:59:22;44.95;40.71;53.09;;
45109;Laerm;30447;48.742;8.972;2023-07-29T05:01:48;42.36;39.08;49.92;;
45109;Laerm;30447;48.742;8.972;2023-07-29T05:04:15;41.79;38.37;60.64;;
45109;Laerm;30447;48.742;8.972;2023-07-29T05:06:41;43.01;38.52;49.80;;
45109;Laerm;30447;48.742;8.972;2023-07-29T05:09:19;41.08;36.69;54.49;;
45109;Laerm;30447;48.742;8.972;2023-07-29T05:11:46;40.94;36.69;57.22;;
45109;Laerm;30447;48.742;8.972;2023-07-29T05:14:13;41.17;37.70;53.20;;
45109;Laerm;30447;48.742;8.972;2023-07-29T05:16:40;40.70;36.69;53.05;;
45109;Laerm;30447;48.742;8.972;2023-07-29T05:19:06;41.62;37.88;50.45;;
45109;Laerm;30447;48.742;8.972;2023-07-29T05:21:33;42.01;37.88;57.70;;
45109;Laerm;30447;48.742;8.972;2023-07-29T05:24:00;42.46;37.70;55.99;;
45109;Laerm;30447;48.742;8.972;2023-07-29T05:26:26;41.22;37.32;53.94;;
45109;Laerm;30447;48.742;8.972;2023-07-29T05:28:53;40.78;36.45;46.50;;
45109;Laerm;30447;48.742;8.972;2023-07-29T05:31:19;41.33;36.91;60.76;;
45109;Laerm;30447;48.742;8.972;2023-07-29T05:33:46;40.40;35.94;51.17;;
45109;Laerm;30447;48.742;8.972;2023-07-29T05:36:12;39.90;36.69;44.69;;
45109;Laerm;30447;48.742;8.972;2023-07-29T05:38:38;40.35;37.12;49.85;;
45109;Laerm;30447;48.742;8.972;2023-07-29T05:41:05;40.26;36.69;49.60;;
45109;Laerm;30447;48.742;8.972;2023-07-29T05:43:31;40.38;37.32;50.56;;
45109;Laerm;30447;48.742;8.972;2023-07-29T05:45:58;40.93;37.88;48.15;;
45109;Laerm;30447;48.742;8.972;2023-07-29T05:48:24;40.51;37.12;47.22;;
45109;Laerm;30447;48.742;8.972;2023-07-29T05:50:51;42.48;37.32;57.18;;
45109;Laerm;30447;48.742;8.972;2023-07-29T05:53:17;40.92;37.12;45.01;;
45109;Laerm;30447;48.742;8.972;2023-07-29T05:55:44;42.53;37.32;53.80;;
45109;Laerm;30447;48.742;8.972;2023-07-29T05:58:10;44.59;38.05;55.06;;
45109;Laerm;30447;48.742;8.972;2023-07-29T06:00:37;42.58;36.20;53.69;;
45109;Laerm;30447;48.742;8.972;2023-07-29T06:03:03;42.92;37.52;53.76;;
45109;Laerm;30447;48.742;8.972;2023-07-29T06:05:30;41.23;36.34;50.73;;
45109;Laerm;30447;48.742;8.972;2023-07-29T06:07:56;41.14;36.45;56.00;;
45109;Laerm;30447;48.742;8.972;2023-07-29T06:10:22;41.34;36.20;51.74;;
45109;Laerm;30447;48.742;8.972;2023-07-29T06:12:49;40.57;36.45;51.82;;
45109;Laerm;30447;48.742;8.972;2023-07-29T06:15:16;41.24;37.32;53.91;;
45109;Laerm;30447;48.742;8.972;2023-07-29T06:17:42;41.11;37.12;53.08;;
45109;Laerm;30447;48.742;8.972;2023-07-29T06:20:09;42.95;36.69;55.69;;
45109;Laerm;30447;48.742;8.972;2023-07-29T06:22:36;40.65;35.04;57.05;;
45109;Laerm;30447;48.742;8.972;2023-07-29T06:25:02;40.28;36.20;48.23;;
45109;Laerm;30447;48.742;8.972;2023-07-29T06:27:29;41.80;36.69;53.11;;
45109;Laerm;30447;48.742;8.972;2023-07-29T06:29:55;41.31;36.91;53.19;;
45109;Laerm;30447;48.742;8.972;2023-07-29T06:32:21;40.67;36.20;52.59;;
45109;Laerm;30447;48.742;8.972;2023-07-29T06:34:48;41.13;36.20;56.52;;
45109;Laerm;30447;48.742;8.972;2023-07-29T06:37:14;40.80;37.12;48.26;;
45109;Laerm;30447;48.742;8.972;2023-07-29T06:39:41;40.72;36.69;45.20;;
45109;Laerm;30447;48.742;8.972;2023-07-29T06:42:07;40.55;36.69;51.75;;
45109;Laerm;30447;48.742;8.972;2023-07-29T06:44:34;40.92;36.20;49.70;;
45109;Laerm;30447;48.742;8.972;2023-07-29T06:47:00;41.23;36.20;50.82;;
45109;Laerm;30447;48.742;8.972;2023-07-29T06:49:26;41.28;36.69;51.93;;
45109;Laerm;30447;48.742;8.972;2023-07-29T06:51:53;41.38;36.91;52.13;;
45109;Laerm;30447;48.742;8.972;2023-07-29T06:54:24;41.50;37.70;48.99;;
45109;Laerm;30447;48.742;8.972;2023-07-29T06:56:50;40.86;35.36;50.62;;
45109;Laerm;30447;48.742;8.972;2023-07-29T06:59:16;41.37;36.34;53.78;;
45109;Laerm;30447;48.742;8.972;2023-07-29T07:01:43;43.31;37.32;55.45;;
45109;Laerm;30447;48.742;8.972;2023-07-29T07:04:09;42.85;37.88;54.12;;
45109;Laerm;30447;48.742;8.972;2023-07-29T07:06:36;42.59;38.21;54.24;;
45109;Laerm;30447;48.742;8.972;2023-07-29T07:09:02;41.40;37.88;50.85;;
45109;Laerm;30447;48.742;8.972;2023-07-29T07:11:29;41.18;37.88;51.97;;
45109;Laerm;30447;48.742;8.972;2023-07-29T07:13:55;40.79;37.52;46.91;;
45109;Laerm;30447;48.742;8.972;2023-07-29T07:16:22;41.91;38.37;54.27;;
45109;Laerm;30447;48.742;8.972;2023-07-29T07:18:48;40.91;36.91;52.40;;
45109;Laerm;30447;48.742;8.972;2023-07-29T07:21:15;44.77;35.94;63.48;;
45109;Laerm;30447;48.742;8.972;2023-07-29T07:23:41;52.46;37.32;75.05;;
45109;Laerm;30447;48.742;8.972;2023-07-29T07:26:08;42.41;37.12;65.62;;
45109;Laerm;30447;48.742;8.972;2023-07-29T07:28:34;45.79;36.20;65.33;;
45109;Laerm;30447;48.742;8.972;2023-07-29T07:31:00;40.58;35.94;50.78;;
45109;Laerm;30447;48.742;8.972;2023-07-29T07:33:27;41.11;36.45;54.54;;
45109;Laerm;30447;48.742;8.972;2023-07-29T07:35:53;40.90;36.45;56.53;;
45109;Laerm;30447;48.742;8.972;2023-07-29T07:38:20;40.46;36.69;52.42;;
45109;Laerm;30447;48.742;8.972;2023-07-29T07:40:53;40.68;36.45;52.20;;
45109;Laerm;30447;48.742;8.972;2023-07-29T07:43:21;42.00;37.52;59.71;;
45109;Laerm;30447;48.742;8.972;2023-07-29T07:45:47;40.68;36.91;51.30;;
45109;Laerm;30447;48.742;8.972;2023-07-29T07:48:14;40.96;37.32;50.04;;
45109;Laerm;30447;48.742;8.972;2023-07-29T07:50:43;40.97;37.12;52.02;;
45109;Laerm;30447;48.742;8.972;2023-07-29T07:53:09;40.35;36.77;49.67;;
45109;Laerm;30447;48.742;8.972;2023-07-29T07:55:36;43.19;37.12;61.50;;
45109;Laerm;30447;48.742;8.972;2023-07-29T07:58:02;40.24;36.20;48.90;;
45109;Laerm;30447;48.742;8.972;2023-07-29T08:00:29;40.35;35.94;47.68;;
45109;Laerm;30447;48.742;8.972;2023-07-29T08:02:55;39.98;35.04;47.55;;
45109;Laerm;30447;48.742;8.972;2023-07-29T08:05:22;43.26;36.69;57.07;;
45109;Laerm;30447;48.742;8.972;2023-07-29T08:07:48;41.27;36.69;55.07;;
45109;Laerm;30447;48.742;8.972;2023-07-29T08:10:14;41.73;36.45;52.03;;
45109;Laerm;30447;48.742;8.972;2023-07-29T08:12:41;41.53;36.91;51.04;;
45109;Laerm;30447;48.742;8.972;2023-07-29T08:15:08;39.67;35.36;45.54;;
45109;Laerm;30447;48.742;8.972;2023-07-29T08:17:34;39.91;36.20;46.02;;
45109;Laerm;30447;48.742;8.972;2023-07-29T08:20:01;40.26;35.04;55.00;;
45109;Laerm;30447;48.742;8.972;2023-07-29T08:22:27;39.87;35.94;52.97;;
45109;Laerm;30447;48.742;8.972;2023-07-29T08:24:53;41.80;35.94;52.42;;
45109;Laerm;30447;48.742;8.972;2023-07-29T08:27:20;40.69;36.20;55.78;;
45109;Laerm;30447;48.742;8.972;2023-07-29T08:29:46;41.55;34.31;63.73;;
45109;Laerm;30447;48.742;8.972;2023-07-29T08:32:13;39.68;35.66;49.94;;
45109;Laerm;30447;48.742;8.972;2023-07-29T08:34:39;40.72;36.20;51.06;;
45109;Laerm;30447;48.742;8.972;2023-07-29T08:37:06;39.88;35.36;51.37;;
45109;Laerm;30447;48.742;8.972;2023-07-29T08:39:32;40.36;35.66;52.34;;
45109;Laerm;30447;48.742;8.972;2023-07-29T08:42:04;39.67;35.94;52.21;;
45109;Laerm;30447;48.742;8.972;2023-07-29T08:44:43;40.86;36.20;55.65;;
45109;Laerm;30447;48.742;8.972;2023-07-29T08:47:11;40.70;35.04;57.93;;
45109;Laerm;30447;48.742;8.972;2023-07-29T08:49:41;40.39;36.45;48.29;;
45109;Laerm;30447;48.742;8.972;2023-07-29T08:52:09;40.65;35.31;55.48;;
45109;Laerm;30447;48.742;8.972;2023-07-29T08:54:36;40.43;36.56;46.80;;
45109;Laerm;30447;48.742;8.972;2023-07-29T08:57:03;40.29;36.45;53.92;;
45109;Laerm;30447;48.742;8.972;2023-07-29T08:59:30;40.33;35.94;56.86;;
45109;Laerm;30447;48.742;8.972;2023-07-29T09:01:58;39.95;35.66;52.96;;
45109;Laerm;30447;48.742;8.972;2023-07-29T09:04:24;40.33;35.36;52.39;;
45109;Laerm;30447;48.742;8.972;2023-07-29T09:06:53;40.20;35.94;59.70;;
45109;Laerm;30447;48.742;8.972;2023-07-29T09:09:21;40.14;35.94;45.20;;
45109;Laerm;30447;48.742;8.972;2023-07-29T09:11:48;39.69;36.20;49.93;;
45109;Laerm;30447;48.742;8.972;2023-07-29T09:14:15;41.33;36.69;51.51;;
45109;Laerm;30447;48.742;8.972;2023-07-29T09:16:41;40.40;36.20;50.21;;
45109;Laerm;30447;48.742;8.972;2023-07-29T09:19:08;41.34;35.94;51.80;;
45109;Laerm;30447;48.742;8.972;2023-07-29T09:21:39;41.69;37.32;51.80;;
45109;Laerm;30447;48.742;8.972;2023-07-29T09:24:07;41.18;36.69;47.42;;
45109;Laerm;30447;48.742;8.972;2023-07-29T09:26:34;41.18;36.69;46.82;;
45109;Laerm;30447;48.742;8.972;2023-07-29T09:29:01;40.62;36.20;53.48;;
45109;Laerm;30447;48.742;8.972;2023-07-29T09:31:29;41.16;36.45;51.03;;
45109;Laerm;30447;48.742;8.972;2023-07-29T09:33:57;41.06;37.12;46.28;;
45109;Laerm;30447;48.742;8.972;2023-07-29T09:36:25;40.73;36.91;55.89;;
45109;Laerm;30447;48.742;8.972;2023-07-29T09:38:56;41.59;37.12;60.05;;
45109;Laerm;30447;48.742;8.972;2023-07-29T09:41:26;43.63;37.52;61.23;;
45109;Laerm;30447;48.742;8.972;2023-07-29T09:44:02;41.02;37.52;54.07;;
45109;Laerm;30447;48.742;8.972;2023-07-29T09:46:35;41.78;36.91;53.86;;
45109;Laerm;30447;48.742;8.972;2023-07-29T09:49:03;41.03;37.35;48.74;;
45109;Laerm;30447;48.742;8.972;2023-07-29T09:51:31;41.59;37.70;49.36;;
45109;Laerm;30447;48.742;8.972;2023-07-29T09:53:57;40.24;36.69;44.51;;
45109;Laerm;30447;48.742;8.972;2023-07-29T09:56:29;41.00;37.12;48.46;;
45109;Laerm;30447;48.742;8.972;2023-07-29T09:58:56;40.28;36.69;48.88;;
45109;Laerm;30447;48.742;8.972;2023-07-29T10:01:24;40.99;36.69;48.87;;
45109;Laerm;30447;48.742;8.972;2023-07-29T10:03:51;42.55;37.70;55.79;;
45109;Laerm;30447;48.742;8.972;2023-07-29T10:06:18;40.48;36.91;48.84;;
45109;Laerm;30447;48.742;8.972;2023-07-29T10:08:47;40.76;36.69;50.29;;
45109;Laerm;30447;48.742;8.972;2023-07-29T10:11:14;41.30;36.98;56.72;;
45109;Laerm;30447;48.742;8.972;2023-07-29T10:13:41;43.38;36.91;65.21;;
45109;Laerm;30447;48.742;8.972;2023-07-29T10:16:08;42.84;37.70;61.93;;
45109;Laerm;30447;48.742;8.972;2023-07-29T10:18:35;41.45;37.32;52.27;;
45109;Laerm;30447;48.742;8.972;2023-07-29T10:21:02;42.02;37.70;57.33;;
45109;Laerm;30447;48.742;8.972;2023-07-29T10:23:37;41.41;37.35;55.90;;
45109;Laerm;30447;48.742;8.972;2023-07-29T10:26:06;41.28;36.91;57.95;;
45109;Laerm;30447;48.742;8.972;2023-07-29T10:28:40;45.06;37.52;64.46;;
45109;Laerm;30447;48.742;8.972;2023-07-29T10:31:08;43.50;38.95;52.52;;
45109;Laerm;30447;48.742;8.972;2023-07-29T10:33:34;44.28;40.71;59.65;;
45109;Laerm;30447;48.742;8.972;2023-07-29T10:36:03;43.28;39.46;54.14;;
45109;Laerm;30447;48.742;8.972;2023-07-29T10:38:31;41.69;37.88;53.19;;
45109;Laerm;30447;48.742;8.972;2023-07-29T10:40:57;42.22;38.37;51.62;;
45109;Laerm;30447;48.742;8.972;2023-07-29T10:43:32;47.36;36.69;60.61;;
45109;Laerm;30447;48.742;8.972;2023-07-29T10:46:22;41.98;37.70;55.98;;
45109;Laerm;30447;48.742;8.972;2023-07-29T10:48:52;42.41;37.70;64.80;;
45109;Laerm;30447;48.742;8.972;2023-07-29T10:51:34;40.56;36.91;54.04;;
45109;Laerm;30447;48.742;8.972;2023-07-29T10:54:11;43.00;37.12;52.41;;
45109;Laerm;30447;48.742;8.972;2023-07-29T10:56:51;43.44;38.95;57.80;;
45109;Laerm;30447;48.742;8.972;2023-07-29T11:02:00;41.67;38.52;50.12;;
45109;Laerm;30447;48.742;8.972;2023-07-29T11:04:29;42.06;38.37;50.06;;
45109;Laerm;30447;48.742;8.972;2023-07-29T11:17:41;40.56;36.45;52.10;;
45109;Laerm;30447;48.742;8.972;2023-07-29T11:20:09;40.81;36.20;52.90;;
45109;Laerm;30447;48.742;8.972;2023-07-29T11:22:36;40.28;35.94;49.25;;
45109;Laerm;30447;48.742;8.972;2023-07-29T11:25:04;39.97;35.04;55.82;;
45109;Laerm;30447;48.742;8.972;2023-07-29T11:27:31;39.19;35.04;44.83;;
45109;Laerm;30447;48.742;8.972;2023-07-29T11:29:59;39.58;35.66;47.48;;
45109;Laerm;30447;48.742;8.972;2023-07-29T11:32:26;40.06;35.66;51.12;;
45109;Laerm;30447;48.742;8.972;2023-07-29T11:34:53;41.90;35.04;57.20;;
45109;Laerm;30447;48.742;8.972;2023-07-29T11:37:19;40.49;35.01;49.00;;
45109;Laerm;30447;48.742;8.972;2023-07-29T11:39:47;39.71;35.36;44.73;;
45109;Laerm;30447;48.742;8.972;2023-07-29T11:42:14;40.01;35.66;53.59;;
45109;Laerm;30447;48.742;8.972;2023-07-29T11:44:41;40.00;36.45;50.01;;
45109;Laerm;30447;48.742;8.972;2023-07-29T11:47:09;39.72;36.20;44.62;;
45109;Laerm;30447;48.742;8.972;2023-07-29T11:49:38;40.58;37.12;47.93;;
45109;Laerm;30447;48.742;8.972;2023-07-29T11:52:09;39.27;36.45;46.25;;
45109;Laerm;30447;48.742;8.972;2023-07-29T11:54:37;39.38;35.94;55.76;;
45109;Laerm;30447;48.742;8.972;2023-07-29T11:57:08;45.22;36.69;69.58;;
45109;Laerm;30447;48.742;8.972;2023-07-29T11:59:36;40.68;36.20;50.43;;
45109;Laerm;30447;48.742;8.972;2023-07-29T12:02:17;41.20;36.45;61.15;;
45109;Laerm;30447;48.742;8.972;2023-07-29T12:04:47;43.84;37.12;56.42;;
45109;Laerm;30447;48.742;8.972;2023-07-29T12:07:16;39.73;36.20;54.12;;
45109;Laerm;30447;48.742;8.972;2023-07-29T12:09:43;39.95;36.45;51.66;;
45109;Laerm;30447;48.742;8.972;2023-07-29T12:12:09;39.83;36.56;45.33;;
45109;Laerm;30447;48.742;8.972;2023-07-29T12:14:36;39.83;36.45;50.12;;
45109;Laerm;30447;48.742;8.972;2023-07-29T12:17:05;39.51;36.20;48.12;;
45109;Laerm;30447;48.742;8.972;2023-07-29T12:22:02;41.57;38.67;52.38;;
45109;Laerm;30447;48.742;8.972;2023-07-29T12:24:30;40.87;36.91;46.87;;
45109;Laerm;30447;48.742;8.972;2023-07-29T12:26:57;41.26;36.56;47.22;;
45109;Laerm;30447;48.742;8.972;2023-07-29T12:29:24;41.72;35.94;51.44;;
45109;Laerm;30447;48.742;8.972;2023-07-29T12:32:03;41.57;36.20;54.64;;
45109;Laerm;30447;48.742;8.972;2023-07-29T12:34:31;42.39;37.17;60.80;;
45109;Laerm;30447;48.742;8.972;2023-07-29T12:36:59;42.28;36.69;52.08;;
45109;Laerm;30447;48.742;8.972;2023-07-29T12:39:28;40.18;36.69;54.36;;
45109;Laerm;30447;48.742;8.972;2023-07-29T12:41:56;41.90;37.32;50.56;;
45109;Laerm;30447;48.742;8.972;2023-07-29T12:44:25;43.60;40.80;48.73;;
45109;Laerm;30447;48.742;8.972;2023-07-29T12:46:52;43.36;38.05;56.66;;
45109;Laerm;30447;48.742;8.972;2023-07-29T12:49:18;43.15;40.71;51.29;;
45109;Laerm;30447;48.742;8.972;2023-07-29T12:51:45;41.97;37.52;53.46;;
45109;Laerm;30447;48.742;8.972;2023-07-29T12:54:12;42.06;38.21;46.66;;
45109;Laerm;30447;48.742;8.972;2023-07-29T12:56:38;42.19;38.37;57.11;;
45109;Laerm;30447;48.742;8.972;2023-07-29T12:59:05;41.65;37.70;48.00;;
45109;Laerm;30447;48.742;8.972;2023-07-29T13:01:32;43.31;38.21;53.01;;
45109;Laerm;30447;48.742;8.972;2023-07-29T13:03:58;42.65;38.37;53.73;;
45109;Laerm;30447;48.742;8.972;2023-07-29T13:06:24;41.81;36.91;49.90;;
45109;Laerm;30447;48.742;8.972;2023-07-29T13:08:51;41.68;37.52;49.89;;
45109;Laerm;30447;48.742;8.972;2023-07-29T13:11:18;46.17;40.80;53.37;;
45109;Laerm;30447;48.742;8.972;2023-07-29T13:13:44;45.23;41.06;52.55;;
45109;Laerm;30447;48.742;8.972;2023-07-29T13:16:12;45.28;41.75;52.03;;
45109;Laerm;30447;48.742;8.972;2023-07-29T13:18:43;44.40;39.92;61.88;;
45109;Laerm;30447;48.742;8.972;2023-07-29T13:21:10;43.75;40.43;59.53;;
45109;Laerm;30447;48.742;8.972;2023-07-29T13:23:36;42.97;39.46;53.78;;
45109;Laerm;30447;48.742;8.972;2023-07-29T13:26:03;44.67;38.05;55.00;;
45109;Laerm;30447;48.742;8.972;2023-07-29T13:28:29;50.00;42.03;68.43;;
45109;Laerm;30447;48.742;8.972;2023-07-29T13:30:55;45.59;41.30;63.10;;
45109;Laerm;30447;48.742;8.972;2023-07-29T13:33:22;58.45;42.93;65.54;;
45109;Laerm;30447;48.742;8.972;2023-07-29T13:35:48;59.03;51.73;68.97;;
45109;Laerm;30447;48.742;8.972;2023-07-29T13:38:15;58.90;53.70;64.28;;
45109;Laerm;30447;48.742;8.972;2023-07-29T13:40:42;58.82;52.90;66.63;;
45109;Laerm;30447;48.742;8.972;2023-07-29T13:43:08;57.65;52.38;63.27;;
45109;Laerm;30447;48.742;8.972;2023-07-29T13:45:35;57.07;52.03;61.20;;
45109;Laerm;30447;48.742;8.972;2023-07-29T13:48:01;55.07;44.23;62.65;;
45109;Laerm;30447;48.742;8.972;2023-07-29T13:50:28;57.59;43.81;63.18;;
45109;Laerm;30447;48.742;8.972;2023-07-29T13:52:54;55.04;42.71;63.72;;
45109;Laerm;30447;48.742;8.972;2023-07-29T13:55:21;54.90;50.07;60.06;;
45109;Laerm;30447;48.742;8.972;2023-07-29T13:57:47;51.49;43.24;58.99;;
45109;Laerm;30447;48.742;8.972;2023-07-29T14:00:14;47.04;42.41;57.36;;
45109;Laerm;30447;48.742;8.972;2023-07-29T14:02:41;52.14;45.99;59.10;;
45109;Laerm;30447;48.742;8.972;2023-07-29T14:05:08;52.25;40.43;65.94;;